Time;durP1;ratioP1;P1;durP2;ratioP2;P2;SDS_P1;SDS_P2;PMS_P1;PMS_P2;Temp;Humidity;BMP_temperature;BMP_pressure;BME280_temperature;BME280_humidity;BME280_pressure;Samples;Min_cycle;Max_cycle;Signal;HPM_P1;HPM_P2
2022/06/08 00:01:22;;;;;;;4.63;4.23;;;;;;;15.82;100.00;98707.47;5132476;27;20202;-81
2022/06/08 00:03:54;;;;;;;5.47;4.20;;;;;;;15.87;100.00;98715.09;5135383;27;20725;-81
2022/06/08 00:06:23;;;;;;;6.27;4.30;;;;;;;15.68;100.00;98705.25;5134998;27;20217;-82
2022/06/08 00:08:51;;;;;;;5.33;4.53;;;;;;;15.53;100.00;98703.94;5134879;27;20259;-81
2022/06/08 00:11:21;;;;;;;5.77;4.27;;;;;;;15.42;100.00;98711.13;5129202;27;20198;-81
2022/06/08 00:13:50;;;;;;;5.20;4.40;;;;;;;15.52;100.00;98718.28;5135373;27;20197;-81
2022/06/08 00:16:21;;;;;;;9.27;4.70;;;;;;;15.45;100.00;98713.53;5139472;27;20175;-81
2022/06/08 00:18:49;;;;;;;7.60;4.77;;;;;;;15.47;100.00;98716.06;5131312;27;20191;-82
2022/06/08 00:21:18;;;;;;;5.73;5.07;;;;;;;15.48;100.00;98719.56;5122922;27;20203;-81
2022/06/08 00:23:47;;;;;;;7.70;5.17;;;;;;;15.45;100.00;98720.69;5134657;27;20273;-82
2022/06/08 00:26:16;;;;;;;5.30;4.13;;;;;;;15.61;100.00;98718.31;5133742;27;20259;-81
2022/06/08 00:28:44;;;;;;;4.80;3.90;;;;;;;15.56;100.00;98720.56;5132772;27;20197;-81
2022/06/08 00:31:13;;;;;;;4.17;3.77;;;;;;;15.68;100.00;98716.78;5127662;27;20218;-81
2022/06/08 00:33:43;;;;;;;3.40;3.10;;;;;;;15.67;100.00;98722.25;5134235;27;20653;-81
2022/06/08 00:36:14;;;;;;;5.10;4.33;;;;;;;15.65;100.00;98717.06;5130077;27;20309;-81
2022/06/08 00:38:42;;;;;;;5.63;5.13;;;;;;;15.58;100.00;98720.41;5132309;27;20205;-81
2022/06/08 00:41:30;;;;;;;7.57;5.97;;;;;;;15.67;100.00;98715.09;5128142;27;20199;-81
2022/06/08 00:44:02;;;;;;;6.33;5.57;;;;;;;15.50;100.00;98707.75;5130333;27;20198;-81
2022/06/08 00:46:32;;;;;;;13.30;6.97;;;;;;;15.49;100.00;98707.91;5134324;27;20214;-81
2022/06/08 00:49:09;;;;;;;22.17;6.73;;;;;;;15.35;100.00;98712.69;5128289;27;20205;-80
2022/06/08 00:51:38;;;;;;;21.77;8.00;;;;;;;15.02;100.00;98700.53;5047765;28;20189;-81
2022/06/08 00:54:13;;;;;;;50.40;8.10;;;;;;;15.09;100.00;98714.19;5041976;28;20193;-81
2022/06/08 00:56:47;;;;;;;49.60;7.87;;;;;;;14.87;100.00;98712.59;5046641;28;20687;-81
2022/06/08 00:59:15;;;;;;;12.37;6.17;;;;;;;15.00;100.00;98715.00;5045872;28;20279;-81
2022/06/08 01:01:44;;;;;;;10.17;6.80;;;;;;;15.15;100.00;98711.81;5043541;28;20204;-81
2022/06/08 01:04:19;;;;;;;18.00;6.50;;;;;;;14.98;100.00;98711.63;5046342;28;20288;-81
2022/06/08 01:06:54;;;;;;;15.37;4.67;;;;;;;14.87;100.00;98710.78;5002678;28;20220;-82
2022/06/08 01:09:28;;;;;;;8.07;4.23;;;;;;;14.74;100.00;98710.16;5074771;27;20198;-86
2022/06/08 01:12:00;;;;;;;9.50;4.00;;;;;;;14.56;100.00;98703.78;5130121;27;20198;-81
2022/06/08 01:14:32;;;;;;;15.03;4.80;;;;;;;14.56;100.00;98703.78;5133945;27;20336;-81
2022/06/08 01:17:06;;;;;;;5.20;4.00;;;;;;;14.60;100.00;98698.06;5134073;28;20206;-81
2022/06/08 01:19:41;;;;;;;16.77;5.00;;;;;;;14.50;100.00;98691.84;5134034;28;20189;-81
2022/06/08 01:22:15;;;;;;;15.83;4.57;;;;;;;14.47;100.00;98696.56;5132668;28;20245;-81
2022/06/08 01:24:46;;;;;;;4.33;3.93;;;;;;;14.64;100.00;98700.44;5127269;28;20214;-81
2022/06/08 01:27:32;;;;;;;4.40;4.00;;;;;;;14.67;100.00;98700.16;5132649;28;20684;-81
2022/06/08 01:30:16;;;;;;;4.37;3.97;;;;;;;14.62;100.00;98703.25;5070889;28;20765;-81
2022/06/08 01:33:23;;;;;;;4.13;3.73;;;;;;;14.76;100.00;98700.19;5072260;28;20204;-81
2022/06/08 01:36:03;;;;;;;4.53;3.77;;;;;;;14.71;100.00;98693.59;5072908;28;20412;-81
2022/06/08 01:38:48;;;;;;;3.80;3.50;;;;;;;14.81;100.00;98694.47;5069087;28;20203;-81
2022/06/08 01:41:35;;;;;;;3.83;3.53;;;;;;;14.88;100.00;98696.47;5070040;28;20204;-81
2022/06/08 01:44:15;;;;;;;5.53;3.70;;;;;;;14.71;100.00;98691.78;5074465;28;20207;-81
2022/06/08 01:46:51;;;;;;;18.77;4.90;;;;;;;14.58;100.00;98693.84;5072668;28;20220;-81
2022/06/08 01:49:28;;;;;;;16.27;4.40;;;;;;;14.45;100.00;98683.41;5131668;27;20648;-81
2022/06/08 01:52:21;;;;;;;8.37;4.67;;;;;;;14.40;100.00;98685.59;5131643;27;20229;-81
2022/06/08 01:55:06;;;;;;;31.83;5.57;;;;;;;14.45;100.00;98694.06;5134107;27;20206;-81
2022/06/08 01:57:59;;;;;;;42.17;6.27;;;;;;;14.34;100.00;98683.47;5112644;28;20202;-81
2022/06/08 02:00:32;;;;;;;21.80;5.83;;;;;;;14.44;100.00;98679.00;5106699;28;20202;-81
2022/06/08 02:03:16;;;;;;;15.43;5.10;;;;;;;14.36;100.00;98681.50;5115035;28;20309;-82
2022/06/08 02:05:54;;;;;;;7.93;5.10;;;;;;;14.38;100.00;98679.56;5110789;28;20202;-81
2022/06/08 02:08:31;;;;;;;6.37;4.50;;;;;;;14.33;100.00;98677.28;5111772;28;20195;-81
2022/06/08 02:11:11;;;;;;;15.37;5.03;;;;;;;14.24;100.00;98672.75;5109531;28;20194;-82
2022/06/08 02:13:44;;;;;;;35.57;5.60;;;;;;;14.16;100.00;98669.06;5114417;28;20242;-81
2022/06/08 02:16:20;;;;;;;12.40;4.80;;;;;;;14.20;100.00;98671.34;5123752;27;20312;-82
2022/06/08 02:18:56;;;;;;;13.83;5.50;;;;;;;14.16;100.00;98671.72;5136515;27;20202;-81
2022/06/08 02:21:32;;;;;;;21.73;5.17;;;;;;;14.19;100.00;98680.31;5129596;27;20217;-82
2022/06/08 02:24:05;;;;;;;31.27;6.10;;;;;;;14.03;100.00;98683.44;5137109;27;20193;-81
2022/06/08 02:26:40;;;;;;;17.50;5.87;;;;;;;14.23;100.00;98676.41;5132564;27;20228;-81
2022/06/08 02:29:13;;;;;;;28.40;6.50;;;;;;;14.27;100.00;98676.97;5130273;27;20208;-81
2022/06/08 02:31:50;;;;;;;14.43;6.40;;;;;;;14.49;100.00;98666.19;5136521;27;20226;-81
2022/06/08 02:34:28;;;;;;;21.53;7.63;;;;;;;14.54;100.00;98671.09;5134438;27;20656;-81
2022/06/08 02:37:03;;;;;;;39.73;7.47;;;;;;;14.47;100.00;98657.44;5135003;27;20277;-81
2022/06/08 02:39:35;;;;;;;52.40;8.67;;;;;;;14.47;100.00;98659.28;5133034;27;20205;-81
2022/06/08 02:42:11;;;;;;;44.30;8.50;;;;;;;14.47;100.00;98656.59;5135090;27;20187;-82
2022/06/08 02:44:42;;;;;;;49.70;8.90;;;;;;;14.42;100.00;98657.00;5136556;27;20201;-81
2022/06/08 02:47:15;;;;;;;32.47;7.20;;;;;;;14.52;100.00;98662.38;5135001;27;20313;-81
2022/06/08 02:49:43;;;;;;;50.00;8.27;;;;;;;14.54;100.00;98663.09;5136928;27;20190;-81
2022/06/08 02:52:18;;;;;;;51.27;9.03;;;;;;;14.49;100.00;98663.50;5136603;27;20199;-82
2022/06/08 02:54:46;;;;;;;26.63;6.90;;;;;;;14.56;100.00;98667.28;5127759;27;20200;-81
2022/06/08 02:57:26;;;;;;;35.33;7.77;;;;;;;14.56;100.00;98663.78;5072148;28;20610;-82
2022/06/08 03:00:00;;;;;;;26.80;7.03;;;;;;;14.70;100.00;98658.09;5032979;28;20193;-81
2022/06/08 03:02:37;;;;;;;16.23;7.80;;;;;;;14.64;100.00;98655.13;5030572;28;20204;-81
2022/06/08 03:05:10;;;;;;;58.17;8.97;;;;;;;14.55;100.00;98662.94;5033568;28;20204;-81
2022/06/08 03:07:41;;;;;;;29.03;7.20;;;;;;;14.50;100.00;98651.03;5029710;28;20221;-81
2022/06/08 03:10:13;;;;;;;15.33;6.90;;;;;;;14.51;100.00;98648.22;5031744;28;20472;-81
2022/06/08 03:12:48;;;;;;;22.30;7.50;;;;;;;14.64;100.00;98645.31;5032969;28;20225;-81
2022/06/08 03:15:22;;;;;;;32.30;7.73;;;;;;;14.58;100.00;98648.53;5057302;28;20191;-81
2022/06/08 03:17:51;;;;;;;17.63;7.07;;;;;;;14.62;100.00;98639.28;5105999;27;20198;-81
2022/06/08 03:20:22;;;;;;;25.30;7.33;;;;;;;14.62;100.00;98646.44;5135776;27;20227;-81
2022/06/08 03:22:53;;;;;;;21.20;7.40;;;;;;;14.54;100.00;98641.78;5135828;27;20193;-81
2022/06/08 03:25:23;;;;;;;22.93;8.30;;;;;;;14.54;100.00;98636.44;5130379;27;20235;-81
2022/06/08 03:27:54;;;;;;;13.83;7.00;;;;;;;14.66;100.00;98650.50;5131879;27;20233;-81
2022/06/08 03:30:25;;;;;;;20.73;7.53;;;;;;;14.68;100.00;98645.91;5135601;27;20233;-81
2022/06/08 03:32:53;;;;;;;22.73;8.90;;;;;;;14.76;100.00;98638.88;5131130;27;20186;-81
2022/06/08 03:35:22;;;;;;;39.73;9.77;;;;;;;14.88;100.00;98634.28;5135432;27;20190;-81
2022/06/08 03:37:51;;;;;;;26.47;9.40;;;;;;;14.89;100.00;98631.47;5135488;27;20194;-81
2022/06/08 03:40:19;;;;;;;37.77;10.23;;;;;;;14.98;100.00;98627.13;5134017;27;20194;-80
2022/06/08 03:42:47;;;;;;;21.93;10.73;;;;;;;14.91;100.00;98628.66;5134993;27;20194;-81
2022/06/08 03:45:17;;;;;;;32.57;12.63;;;;;;;14.93;100.00;98628.50;5156209;27;20206;-81
2022/06/08 03:47:53;;;;;;;17.73;12.40;;;;;;;15.03;100.00;98624.88;5134282;27;20716;-81
2022/06/08 03:50:25;;;;;;;35.30;11.57;;;;;;;15.07;100.00;98630.78;5135085;27;20196;-81
2022/06/08 03:52:58;;;;;;;28.53;11.67;;;;;;;15.15;100.00;98629.13;5134696;27;20209;-81
2022/06/08 03:55:29;;;;;;;46.70;12.17;;;;;;;15.15;100.00;98625.56;5133990;27;20201;-81
2022/06/08 03:57:59;;;;;;;15.13;9.77;;;;;;;15.18;100.00;98626.16;5135469;27;20195;-81
2022/06/08 04:00:29;;;;;;;16.03;10.83;;;;;;;15.20;100.00;98626.00;5132593;27;20202;-81
2022/06/08 04:02:58;;;;;;;22.13;11.23;;;;;;;15.00;100.00;98633.16;5134757;27;20202;-81
2022/06/08 04:05:29;;;;;;;21.17;11.50;;;;;;;15.21;100.00;98630.38;5134774;27;20194;-81
2022/06/08 04:07:58;;;;;;;14.93;12.20;;;;;;;15.33;100.00;98628.38;5115976;27;20205;-81
2022/06/08 04:10:26;;;;;;;34.57;12.97;;;;;;;15.28;100.00;98627.97;5132194;27;20195;-81
2022/06/08 04:12:55;;;;;;;15.80;11.70;;;;;;;15.45;100.00;98620.13;5134833;27;20193;-81
2022/06/08 04:18:11;;;;;;;20.90;13.33;;;;;;;15.53;100.00;98614.03;5135051;27;20264;-81
2022/06/08 04:20:41;;;;;;;17.97;13.33;;;;;;;15.48;100.00;98610.97;5129261;27;20629;-81
2022/06/08 04:23:09;;;;;;;16.77;12.90;;;;;;;15.59;100.00;98617.97;5134661;27;20198;-81
2022/06/08 04:25:39;;;;;;;20.63;13.80;;;;;;;15.41;100.00;98616.03;5126008;27;20679;-81
2022/06/08 04:28:08;;;;;;;20.70;13.40;;;;;;;15.39;100.00;98618.00;5130677;27;20221;-81
2022/06/08 04:30:37;;;;;;;18.93;14.03;;;;;;;15.44;100.00;98626.44;5131911;27;20230;-81
2022/06/08 04:33:05;;;;;;;16.47;13.30;;;;;;;15.64;100.00;98624.63;5129013;27;20209;-81
2022/06/08 04:35:38;;;;;;;19.10;14.23;;;;;;;15.48;100.00;98621.66;5132978;27;20217;-81
2022/06/08 04:38:07;;;;;;;18.63;14.20;;;;;;;15.46;100.00;98612.94;5133367;27;20201;-82
2022/06/08 04:40:37;;;;;;;23.37;14.83;;;;;;;15.54;100.00;98629.09;5133405;27;20194;-82
2022/06/08 04:43:06;;;;;;;22.30;14.67;;;;;;;15.46;100.00;98632.47;5131932;27;20278;-81
2022/06/08 04:45:35;;;;;;;18.60;14.13;;;;;;;15.28;100.00;98625.31;5134505;27;20202;-81
2022/06/08 04:48:04;;;;;;;28.37;14.63;;;;;;;15.25;100.00;98633.59;5132599;27;20218;-81
2022/06/08 04:50:33;;;;;;;33.10;14.93;;;;;;;15.10;100.00;98642.00;5129050;27;20676;-81
2022/06/08 04:53:03;;;;;;;21.13;14.93;;;;;;;15.14;100.00;98647.91;5134287;27;20207;-81
2022/06/08 04:55:32;;;;;;;25.90;16.43;;;;;;;15.15;100.00;98649.59;5132830;27;20190;-82
2022/06/08 04:58:01;;;;;;;27.17;15.67;;;;;;;15.20;100.00;98643.84;5134068;27;20194;-81
2022/06/08 05:00:30;;;;;;;24.60;15.87;;;;;;;15.16;100.00;98645.97;5133971;27;20202;-81
2022/06/08 05:02:58;;;;;;;26.27;15.40;;;;;;;15.25;100.00;98642.47;5133957;27;20198;-81
2022/06/08 05:05:28;;;;;;;28.03;16.67;;;;;;;15.12;100.00;98653.38;5132961;27;20190;-81
2022/06/08 05:07:57;;;;;;;29.60;17.97;;;;;;;15.21;100.00;98642.84;5133716;27;20218;-81
2022/06/08 05:10:31;;;;;;;33.67;17.30;;;;;;;15.00;100.00;98640.31;5132829;27;20205;-81
2022/06/08 05:13:00;;;;;;;31.80;16.90;;;;;;;15.07;100.00;98636.13;5133914;27;20205;-81
2022/06/08 05:15:31;;;;;;;21.67;15.43;;;;;;;15.21;100.00;98635.69;5131518;27;20190;-81
2022/06/08 05:18:00;;;;;;;20.87;15.23;;;;;;;15.39;100.00;98633.16;5131583;28;20190;-81
2022/06/08 05:20:30;;;;;;;30.43;17.30;;;;;;;15.33;100.00;98647.06;5126019;28;20194;-81
2022/06/08 05:22:59;;;;;;;27.10;18.20;;;;;;;15.42;100.00;98640.88;5133937;28;20277;-81
2022/06/08 05:25:31;;;;;;;25.60;18.30;;;;;;;15.46;100.00;98637.81;5132626;27;20190;-81
2022/06/08 05:28:00;;;;;;;25.97;18.23;;;;;;;15.52;100.00;98636.38;5126661;28;20342;-81
2022/06/08 05:30:28;;;;;;;28.60;18.77;;;;;;;15.37;100.00;98637.81;5132501;28;20221;-81
2022/06/08 05:32:57;;;;;;;27.23;17.57;;;;;;;15.53;100.00;98632.72;5131535;28;20190;-81
2022/06/08 05:35:26;;;;;;;29.20;19.27;;;;;;;15.51;100.00;98626.69;5131439;28;20268;-81
2022/06/08 05:37:54;;;;;;;26.60;18.27;;;;;;;15.58;100.00;98630.47;5130008;28;20273;-81
2022/06/08 05:40:24;;;;;;;23.87;17.60;;;;;;;15.56;100.00;98632.47;5126606;28;20200;-81
2022/06/08 05:42:54;;;;;;;22.97;16.93;;;;;;;15.64;100.00;98626.44;5133751;28;20295;-81
2022/06/08 05:45:25;;;;;;;29.37;17.93;;;;;;;15.66;100.00;98622.63;5133790;28;20269;-80
2022/06/08 05:47:54;;;;;;;25.50;17.67;;;;;;;15.76;100.00;98616.44;5133254;28;20205;-80
2022/06/08 05:50:24;;;;;;;23.63;17.60;;;;;;;15.77;100.00;98618.13;5126555;28;20198;-80
2022/06/08 05:52:52;;;;;;;24.00;17.90;;;;;;;15.89;100.00;98614.28;5128345;28;20221;-81
2022/06/08 05:55:24;;;;;;;19.93;16.83;;;;;;;16.03;100.00;98612.00;5129735;28;20201;-81
2022/06/08 05:57:54;;;;;;;19.33;16.83;;;;;;;15.74;100.00;98608.56;5125475;28;20269;-81
2022/06/08 06:00:25;;;;;;;21.27;16.97;;;;;;;15.98;100.00;98610.75;5130779;28;20307;-81
2022/06/08 06:02:54;;;;;;;23.10;16.63;;;;;;;16.24;100.00;98621.63;5132258;28;20640;-80
2022/06/08 06:05:26;;;;;;;19.67;15.50;;;;;;;16.30;100.00;98615.66;5133038;28;20199;-80
2022/06/08 06:07:56;;;;;;;19.57;15.87;;;;;;;16.38;100.00;98607.75;5133608;28;20253;-80
2022/06/08 06:10:26;;;;;;;20.40;15.20;;;;;;;16.51;100.00;98591.38;5132219;28;20205;-81
2022/06/08 06:12:56;;;;;;;17.47;14.90;;;;;;;16.40;100.00;98589.72;5133028;28;20217;-81
2022/06/08 06:15:25;;;;;;;17.27;13.83;;;;;;;16.40;100.00;98583.53;5126719;27;20241;-81
2022/06/08 06:17:57;;;;;;;15.83;14.17;;;;;;;16.41;100.00;98579.91;5136842;27;20197;-81
2022/06/08 06:20:25;;;;;;;15.83;14.00;;;;;;;16.63;100.00;98584.00;5137173;27;20708;-81
2022/06/08 06:22:54;;;;;;;18.43;16.43;;;;;;;16.33;100.00;98587.81;5132512;27;20653;-82
2022/06/08 06:25:22;;;;;;;22.77;16.53;;;;;;;16.33;100.00;98583.31;5135712;27;20194;-81
2022/06/08 06:27:50;;;;;;;21.53;16.87;;;;;;;16.35;100.00;98575.16;5132457;27;20277;-81
2022/06/08 06:30:20;;;;;;;18.33;14.97;;;;;;;16.43;100.00;98575.25;5135288;27;20230;-81
2022/06/08 06:32:49;;;;;;;20.33;14.87;;;;;;;16.47;100.00;98571.28;5129810;27;20217;-81
2022/06/08 06:35:21;;;;;;;18.80;15.03;;;;;;;16.34;100.00;98578.81;5136617;27;20273;-81
2022/06/08 06:37:51;;;;;;;18.17;15.40;;;;;;;16.40;100.00;98576.38;5128049;27;20358;-81
2022/06/08 06:40:20;;;;;;;17.20;15.30;;;;;;;16.50;100.00;98566.47;5135763;27;20202;-81
2022/06/08 06:42:49;;;;;;;17.03;15.23;;;;;;;16.47;100.00;98568.59;5136668;27;20198;-82
2022/06/08 06:45:18;;;;;;;17.93;16.23;;;;;;;16.43;100.00;98568.06;5136380;27;20255;-81
2022/06/08 06:47:47;;;;;;;20.13;15.40;;;;;;;16.39;100.00;98581.88;5136678;27;20263;-81
2022/06/08 06:50:17;;;;;;;18.37;14.90;;;;;;;16.42;100.00;98574.41;5136459;27;20210;-81
2022/06/08 06:52:46;;;;;;;18.43;16.00;;;;;;;16.36;100.00;98574.16;5136269;27;20246;-81
2022/06/08 06:55:22;;;;;;;18.63;16.83;;;;;;;16.40;100.00;98576.38;5131527;27;20217;-81
2022/06/08 06:57:50;;;;;;;21.87;17.53;;;;;;;16.29;100.00;98576.56;5136091;27;20194;-81
2022/06/08 07:00:19;;;;;;;19.43;16.43;;;;;;;16.30;100.00;98573.75;5136252;27;20198;-81
2022/06/08 07:02:49;;;;;;;19.43;17.37;;;;;;;16.26;100.00;98577.72;5136360;27;20198;-81
2022/06/08 07:05:19;;;;;;;19.87;17.73;;;;;;;16.33;100.00;98569.97;5128109;27;20645;-81
2022/06/08 07:07:48;;;;;;;25.10;19.80;;;;;;;16.34;100.00;98565.44;5136075;27;20204;-81
2022/06/08 07:10:17;;;;;;;21.83;19.53;;;;;;;16.44;100.00;98559.06;5134571;27;20297;-80
2022/06/08 07:12:46;;;;;;;22.63;20.23;;;;;;;16.48;100.00;98556.91;5135914;27;20268;-80
2022/06/08 07:15:16;;;;;;;23.53;20.47;;;;;;;16.52;100.00;98559.16;5133994;27;20198;-81
2022/06/08 07:17:45;;;;;;;22.20;20.00;;;;;;;16.59;100.00;98548.66;5136182;27;20194;-81
2022/06/08 07:20:15;;;;;;;21.13;18.77;;;;;;;16.61;100.00;98544.03;5135644;27;20186;-81
2022/06/08 07:22:43;;;;;;;23.13;20.13;;;;;;;16.68;100.00;98537.09;5135822;27;20262;-81
2022/06/08 07:25:14;;;;;;;20.47;18.30;;;;;;;16.62;100.00;98529.66;5129416;27;20202;-81
2022/06/08 07:27:43;;;;;;;22.63;20.27;;;;;;;16.73;100.00;98526.78;5134654;27;20266;-81
2022/06/08 07:30:14;;;;;;;18.13;16.20;;;;;;;16.85;100.00;98525.56;5131553;27;20217;-81
2022/06/08 07:32:42;;;;;;;19.77;17.77;;;;;;;16.97;100.00;98525.31;5135428;27;20274;-81
2022/06/08 07:35:14;;;;;;;18.77;16.73;;;;;;;17.26;100.00;98511.66;5130098;27;20209;-81
2022/06/08 07:37:43;;;;;;;19.13;17.07;;;;;;;17.26;100.00;98512.50;5134592;27;20229;-81
2022/06/08 07:40:12;;;;;;;17.43;15.83;;;;;;;17.36;100.00;98499.03;5134046;27;20213;-81
2022/06/08 07:42:41;;;;;;;17.60;15.73;;;;;;;17.20;100.00;98494.41;5135542;27;20190;-81
2022/06/08 07:45:11;;;;;;;15.30;13.77;;;;;;;17.38;100.00;98491.69;5131667;27;20206;-82
2022/06/08 07:50:25;;;;;;;16.00;14.30;;;;;;;17.26;100.00;98484.91;5135314;27;20256;-81
2022/06/08 07:52:53;;;;;;;14.87;13.37;;;;;;;17.23;100.00;98488.75;5135433;27;20205;-82
2022/06/08 07:55:23;;;;;;;13.57;12.27;;;;;;;17.27;100.00;98487.41;5129878;27;20195;-81
2022/06/08 07:57:51;;;;;;;14.67;11.77;;;;;;;17.45;100.00;98485.53;5128473;27;20190;-82
2022/06/08 08:00:22;;;;;;;13.70;12.27;;;;;;;17.37;100.00;98490.88;5135384;27;20209;-81
2022/06/08 08:02:50;;;;;;;15.00;13.27;;;;;;;17.27;100.00;98491.94;5135594;27;20186;-81
2022/06/08 08:05:19;;;;;;;12.37;11.33;;;;;;;17.32;100.00;98482.44;5131528;27;20262;-81
2022/06/08 08:07:50;;;;;;;11.23;9.90;;;;;;;17.73;100.00;98478.19;5135716;27;20191;-82
2022/06/08 08:10:20;;;;;;;10.77;9.60;;;;;;;17.98;100.00;98478.31;5134177;27;20222;-82
2022/06/08 08:12:49;;;;;;;10.57;9.37;;;;;;;18.13;100.00;98473.97;5135049;27;20235;-82
2022/06/08 08:15:18;;;;;;;9.57;8.40;;;;;;;18.34;100.00;98462.84;5134261;27;20186;-82
2022/06/08 08:17:46;;;;;;;7.80;7.10;;;;;;;18.34;100.00;98460.16;5135060;27;20217;-81
2022/06/08 08:20:19;;;;;;;12.07;6.97;;;;;;;18.13;100.00;98467.78;5134859;27;20223;-81
2022/06/08 08:22:49;;;;;;;8.13;7.30;;;;;;;18.23;100.00;98458.59;5134804;27;20656;-81
2022/06/08 08:25:19;;;;;;;11.17;7.13;;;;;;;18.61;100.00;98456.31;5128843;27;20202;-82
2022/06/08 08:27:47;;;;;;;6.93;5.40;;;;;;;18.68;100.00;98443.94;5134934;27;20198;-81
2022/06/08 08:30:18;;;;;;;6.93;4.87;;;;;;;19.15;100.00;98436.03;5134176;27;20213;-81
2022/06/08 08:32:47;;;;;;;6.47;5.00;;;;;;;19.20;100.00;98426.63;5130428;27;20198;-81
2022/06/08 08:35:17;;;;;;;5.47;4.37;;;;;;;19.07;100.00;98419.94;5134567;27;20205;-82
2022/06/08 08:37:46;;;;;;;4.53;4.00;;;;;;;19.13;100.00;98411.22;5131382;27;20186;-81
2022/06/08 08:40:28;;;;;;;5.37;3.60;;;;;;;19.43;100.00;98401.56;5131705;27;20201;-81
2022/06/08 08:42:58;;;;;;;4.87;3.30;;;;;;;19.64;100.00;98389.44;5134338;27;20186;-81
2022/06/08 08:45:29;;;;;;;4.63;3.50;;;;;;;19.43;100.00;98382.78;5134429;27;20186;-81
2022/06/08 08:48:04;;;;;;;4.80;3.20;;;;;;;19.77;100.00;98383.50;5131392;27;20194;-81
2022/06/08 08:50:35;;;;;;;4.50;3.50;;;;;;;19.91;100.00;98382.75;5134378;27;20213;-81
2022/06/08 08:53:14;;;;;;;4.57;3.30;;;;;;;20.20;100.00;98380.22;5133951;27;20194;-81
2022/06/08 08:55:58;;;;;;;9.07;3.77;;;;;;;20.27;100.00;98370.44;5133119;27;20197;-81
2022/06/08 08:58:30;;;;;;;5.07;3.43;;;;;;;20.23;100.00;98385.22;5133848;27;20205;-81
2022/06/08 09:01:01;;;;;;;4.63;3.10;;;;;;;20.56;100.00;98374.28;5133033;27;20193;-81
2022/06/08 09:03:33;;;;;;;6.10;3.07;;;;;;;20.65;100.00;98373.16;5128671;27;20659;-81
2022/06/08 09:06:11;;;;;;;5.00;2.73;;;;;;;20.63;100.00;98364.44;5134189;27;20281;-81
2022/06/08 09:08:41;;;;;;;4.20;2.40;;;;;;;20.57;100.00;98367.88;5133583;27;20258;-81
2022/06/08 09:11:15;;;;;;;3.20;2.30;;;;;;;20.85;100.00;98360.06;5131349;27;20210;-81
2022/06/08 09:13:49;;;;;;;4.83;2.27;;;;;;;20.82;100.00;98360.41;5128540;27;20199;-81
2022/06/08 09:16:37;;;;;;;2.97;2.60;;;;;;;20.85;100.00;98358.19;5134020;27;20272;-81
2022/06/08 09:19:29;;;;;;;5.03;2.63;;;;;;;20.95;100.00;98352.53;5133755;28;20197;-81
2022/06/08 09:22:19;;;;;;;3.53;2.67;;;;;;;21.09;100.00;98354.41;5131972;28;20233;-81
2022/06/08 09:24:50;;;;;;;3.70;2.47;;;;;;;21.21;100.00;98351.25;5132582;28;20194;-80
2022/06/08 09:27:25;;;;;;;4.63;2.30;;;;;;;21.08;100.00;98341.97;5134094;28;20197;-81
2022/06/08 09:30:02;;;;;;;3.83;1.90;;;;;;;20.69;100.00;98342.19;5130820;28;20190;-80
2022/06/08 09:32:44;;;;;;;2.93;1.97;;;;;;;21.01;100.00;98338.31;5133140;28;20269;-81
2022/06/08 09:35:27;;;;;;;5.25;2.35;;;;;;;20.81;100.00;98334.50;5131369;28;20198;-81
2022/06/08 09:37:58;;;;;;;3.53;2.20;;;;;;;20.77;100.00;98338.59;5126952;28;20198;-81
2022/06/08 09:40:40;;;;;;;5.03;2.50;;;;;;;20.79;100.00;98334.69;5132614;28;20282;-81
2022/06/08 09:43:48;;;;;;;4.43;2.60;;;;;;;20.68;100.00;98337.00;5132935;28;20201;-82
2022/06/08 09:52:20;;;;;;;10.40;2.40;;;;;;;20.64;100.00;98333.81;5135891;27;20225;-81
2022/06/08 09:55:02;;;;;;;5.53;2.70;;;;;;;20.42;100.00;98340.88;5135441;27;20197;-81
2022/06/08 09:57:41;;;;;;;6.03;2.90;;;;;;;20.54;100.00;98341.31;5137998;27;20292;-81
2022/06/08 10:00:30;;;;;;;5.63;2.33;;;;;;;20.30;100.00;98331.56;5137429;27;20182;-81
2022/06/08 10:03:16;;;;;;;6.43;2.63;;;;;;;20.40;100.00;98332.16;5135473;27;20193;-81
2022/06/08 10:06:03;;;;;;;6.00;2.53;;;;;;;20.14;100.00;98340.59;5135748;27;20237;-81
2022/06/08 10:08:47;;;;;;;4.63;2.53;;;;;;;19.91;100.00;98337.91;5137402;27;20233;-81
2022/06/08 10:14:22;;;;;;;4.87;2.20;;;;;;;19.99;100.00;98331.63;5132544;27;20280;-81
2022/06/08 10:16:54;;;;;;;6.17;2.30;;;;;;;19.93;100.00;98341.25;5136168;27;20273;-81
2022/06/08 10:19:32;;;;;;;4.67;1.90;;;;;;;20.28;100.00;98326.38;5137392;27;20194;-81
2022/06/08 10:22:03;;;;;;;5.23;2.20;;;;;;;20.17;100.00;98328.63;5137262;27;20197;-81
2022/06/08 10:24:42;;;;;;;6.03;2.17;;;;;;;20.35;100.00;98325.63;5137051;27;20237;-81
2022/06/08 10:27:16;;;;;;;5.80;2.30;;;;;;;20.38;100.00;98318.06;5135676;27;20648;-80
2022/06/08 10:29:50;;;;;;;3.83;1.80;;;;;;;20.41;100.00;98312.31;5136934;27;20186;-81
2022/06/08 10:32:24;;;;;;;7.33;2.30;;;;;;;20.52;100.00;98314.59;5136993;27;20228;-81
2022/06/08 10:34:54;;;;;;;4.70;2.10;;;;;;;20.79;100.00;98307.78;5135896;27;20194;-81
2022/06/08 10:37:30;;;;;;;3.50;1.90;;;;;;;20.80;100.00;98300.53;5137616;27;20198;-80
2022/06/08 10:40:00;;;;;;;5.20;1.63;;;;;;;20.91;100.00;98300.06;5134008;27;20326;-81
2022/06/08 10:42:43;;;;;;;5.43;1.70;;;;;;;21.09;100.00;98300.53;5136920;27;20202;-81
2022/06/08 10:45:37;;;;;;;4.87;1.63;;;;;;;21.80;100.00;98291.91;5133966;27;20186;-81
2022/06/08 10:48:34;;;;;;;3.33;1.53;;;;;;;22.42;100.00;98278.63;5133397;27;20202;-81
2022/06/08 10:51:31;;;;;;;5.53;1.92;;;;;;;22.74;100.00;98296.09;5136856;27;20301;-82
2022/06/08 10:57:02;;;;;;;5.53;1.90;;;;;;;23.24;100.00;98269.00;5136425;27;20186;-82
2022/06/08 10:59:31;;;;;;;2.38;1.35;;;;;;;23.63;100.00;98257.53;5134047;27;20195;-82
2022/06/08 11:02:24;;;;;;;3.08;1.50;;;;;;;23.88;100.00;98253.22;5136787;27;20207;-81
2022/06/08 11:05:10;;;;;;;6.03;1.90;;;;;;;23.99;100.00;98257.19;5135180;27;20202;-82
2022/06/08 11:08:08;;;;;;;4.57;1.60;;;;;;;23.78;100.00;98255.50;5136541;27;20198;-82
2022/06/08 11:11:00;;;;;;;5.18;1.73;;;;;;;23.21;100.00;98250.50;5133960;27;20194;-81
2022/06/08 11:13:36;;;;;;;3.15;1.15;;;;;;;23.21;100.00;98251.31;5133795;27;20187;-82
2022/06/08 11:16:25;;;;;;;6.03;1.90;;;;;;;22.62;100.00;98240.16;5136466;27;20632;-81
2022/06/08 11:18:58;;;;;;;5.80;1.98;;;;;;;22.72;100.00;98241.47;5129173;27;20216;-81
2022/06/08 11:21:39;;;;;;;3.80;1.50;;;;;;;22.75;100.00;98243.75;5136039;27;20273;-81
2022/06/08 11:24:18;;;;;;;7.32;1.45;;;;;;;21.93;100.00;98248.91;5135637;27;20202;-81
2022/06/08 11:26:53;;;;;;;2.67;1.40;;;;;;;21.94;100.00;98239.78;5133215;27;20195;-81
2022/06/08 11:29:46;;;;;;;4.00;1.42;;;;;;;21.46;100.00;98239.50;5135745;27;20202;-80
2022/06/08 11:32:50;;;;;;;5.10;1.80;;;;;;;21.59;100.00;98228.03;5133394;27;20262;-81
2022/06/08 11:35:51;;;;;;;3.70;1.50;;;;;;;21.79;100.00;98228.22;5134279;27;20194;-81
2022/06/08 11:38:50;;;;;;;5.20;1.80;;;;;;;21.41;100.00;98233.84;5125607;27;20190;-81
2022/06/08 11:41:30;;;;;;;3.90;1.53;;;;;;;21.39;100.00;98233.19;5101928;27;20191;-80
2022/06/08 11:44:03;;;;;;;4.13;1.70;;;;;;;22.20;100.00;98223.03;5132063;27;20194;-81
2022/06/08 11:46:38;;;;;;;4.70;1.55;;;;;;;22.57;100.00;98219.13;5135667;27;20201;-81
2022/06/08 11:49:08;;;;;;;4.22;1.40;;;;;;;22.60;100.00;98226.03;5135584;27;20198;-81
2022/06/08 11:51:41;;;;;;;4.28;1.60;;;;;;;21.55;100.00;98218.66;5134956;27;20221;-80
2022/06/08 11:54:18;;;;;;;2.58;1.30;;;;;;;21.74;100.00;98217.19;5135460;27;20202;-81
2022/06/08 11:57:02;;;;;;;3.77;1.50;;;;;;;21.87;100.00;98218.16;5127828;27;20202;-81
2022/06/08 11:59:36;;;;;;;3.58;1.52;;;;;;;21.91;100.00;98213.22;5134858;27;20209;-80
2022/06/08 12:02:18;;;;;;;4.68;1.80;;;;;;;21.50;100.00;98221.09;5135358;27;20278;-81
2022/06/08 12:04:50;;;;;;;4.17;1.50;;;;;;;21.91;100.00;98214.06;5098314;27;20201;-81